sensor_id;sensor_type;location;lat;lon;timestamp;temperature;humidity
14317;DHT22;7242;50.858;6.586;2024-01-30T00:03:37;7.90;99.90
14317;DHT22;7242;50.858;6.586;2024-01-30T00:09:39;7.70;99.90
14317;DHT22;7242;50.858;6.586;2024-01-30T00:12:43;7.80;99.90
14317;DHT22;7242;50.858;6.586;2024-01-30T00:15:44;7.70;99.90
14317;DHT22;7242;50.858;6.586;2024-01-30T00:30:50;7.60;99.90
14317;DHT22;7242;50.858;6.586;2024-01-30T00:42:54;7.70;99.90
14317;DHT22;7242;50.858;6.586;2024-01-30T00:51:57;7.60;99.90
14317;DHT22;7242;50.858;6.586;2024-01-30T00:54:58;7.70;99.90
14317;DHT22;7242;50.858;6.586;2024-01-30T00:58:00;7.60;99.90
14317;DHT22;7242;50.858;6.586;2024-01-30T01:01:01;7.50;99.90
14317;DHT22;7242;50.858;6.586;2024-01-30T01:04:01;7.60;99.90
14317;DHT22;7242;50.858;6.586;2024-01-30T01:07:02;7.60;99.90
14317;DHT22;7242;50.858;6.586;2024-01-30T01:13:05;7.50;99.90
14317;DHT22;7242;50.858;6.586;2024-01-30T01:19:07;7.40;99.90
14317;DHT22;7242;50.858;6.586;2024-01-30T01:25:09;7.60;99.90
14317;DHT22;7242;50.858;6.586;2024-01-30T01:28:10;7.70;99.90
14317;DHT22;7242;50.858;6.586;2024-01-30T01:31:11;7.60;99.90
14317;DHT22;7242;50.858;6.586;2024-01-30T01:34:13;7.50;99.90
14317;DHT22;7242;50.858;6.586;2024-01-30T01:37:13;7.50;99.90
14317;DHT22;7242;50.858;6.586;2024-01-30T01:43:15;7.40;99.90
14317;DHT22;7242;50.858;6.586;2024-01-30T01:46:17;7.50;99.90
14317;DHT22;7242;50.858;6.586;2024-01-30T01:55:21;7.80;99.90
14317;DHT22;7242;50.858;6.586;2024-01-30T01:58:27;7.90;99.90
14317;DHT22;7242;50.858;6.586;2024-01-30T02:07:31;7.90;99.90
14317;DHT22;7242;50.858;6.586;2024-01-30T02:22:38;7.90;99.90
14317;DHT22;7242;50.858;6.586;2024-01-30T02:25:42;7.90;99.90
14317;DHT22;7242;50.858;6.586;2024-01-30T02:28:44;7.90;99.90
14317;DHT22;7242;50.858;6.586;2024-01-30T02:34:47;7.80;99.90
14317;DHT22;7242;50.858;6.586;2024-01-30T02:40:49;7.90;99.90
14317;DHT22;7242;50.858;6.586;2024-01-30T02:43:50;8.00;99.90
14317;DHT22;7242;50.858;6.586;2024-01-30T02:46:51;7.90;99.90
14317;DHT22;7242;50.858;6.586;2024-01-30T02:49:52;7.90;99.90
14317;DHT22;7242;50.858;6.586;2024-01-30T02:52:53;8.00;99.90
14317;DHT22;7242;50.858;6.586;2024-01-30T03:01:56;8.10;99.90
14317;DHT22;7242;50.858;6.586;2024-01-30T03:04:57;8.10;99.90
14317;DHT22;7242;50.858;6.586;2024-01-30T03:17:01;8.00;99.90
14317;DHT22;7242;50.858;6.586;2024-01-30T03:20:04;8.00;99.90
14317;DHT22;7242;50.858;6.586;2024-01-30T03:29:09;8.00;99.90
14317;DHT22;7242;50.858;6.586;2024-01-30T03:35:11;7.80;99.90
14317;DHT22;7242;50.858;6.586;2024-01-30T03:38:12;7.70;99.90
14317;DHT22;7242;50.858;6.586;2024-01-30T03:41:13;7.60;99.90
14317;DHT22;7242;50.858;6.586;2024-01-30T03:44:14;7.70;99.90
14317;DHT22;7242;50.858;6.586;2024-01-30T03:50:16;7.80;99.90
14317;DHT22;7242;50.858;6.586;2024-01-30T03:53:17;7.90;99.90
14317;DHT22;7242;50.858;6.586;2024-01-30T04:02:24;8.00;99.90
14317;DHT22;7242;50.858;6.586;2024-01-30T04:08:26;8.00;99.90
14317;DHT22;7242;50.858;6.586;2024-01-30T04:11:27;8.00;99.90
14317;DHT22;7242;50.858;6.586;2024-01-30T04:14:28;8.00;99.90
14317;DHT22;7242;50.858;6.586;2024-01-30T04:17:28;8.00;99.90
14317;DHT22;7242;50.858;6.586;2024-01-30T04:20:30;8.10;99.90
14317;DHT22;7242;50.858;6.586;2024-01-30T04:23:30;8.10;99.90
14317;DHT22;7242;50.858;6.586;2024-01-30T04:29:32;8.00;99.90
14317;DHT22;7242;50.858;6.586;2024-01-30T04:32:35;8.00;99.90
14317;DHT22;7242;50.858;6.586;2024-01-30T04:38:38;7.90;99.90
14317;DHT22;7242;50.858;6.586;2024-01-30T04:50:43;7.80;99.90
14317;DHT22;7242;50.858;6.586;2024-01-30T04:56:45;7.80;99.90
14317;DHT22;7242;50.858;6.586;2024-01-30T05:02:47;7.80;99.90
14317;DHT22;7242;50.858;6.586;2024-01-30T05:05:48;7.60;99.90
14317;DHT22;7242;50.858;6.586;2024-01-30T05:08:49;7.60;99.90
14317;DHT22;7242;50.858;6.586;2024-01-30T05:14:51;7.60;99.90
14317;DHT22;7242;50.858;6.586;2024-01-30T05:32:58;7.60;99.90
14317;DHT22;7242;50.858;6.586;2024-01-30T05:42:02;7.70;99.90
14317;DHT22;7242;50.858;6.586;2024-01-30T05:51:07;7.70;99.90
14317;DHT22;7242;50.858;6.586;2024-01-30T05:54:08;7.70;99.90
14317;DHT22;7242;50.858;6.586;2024-01-30T06:00:11;8.00;99.90
14317;DHT22;7242;50.858;6.586;2024-01-30T06:03:12;7.70;99.90
14317;DHT22;7242;50.858;6.586;2024-01-30T06:12:15;7.60;99.90
14317;DHT22;7242;50.858;6.586;2024-01-30T06:18:17;7.60;99.90
14317;DHT22;7242;50.858;6.586;2024-01-30T06:24:19;7.80;99.90
14317;DHT22;7242;50.858;6.586;2024-01-30T06:30:21;7.80;99.90
14317;DHT22;7242;50.858;6.586;2024-01-30T06:36:23;8.00;99.90
14317;DHT22;7242;50.858;6.586;2024-01-30T06:48:28;7.90;99.90
14317;DHT22;7242;50.858;6.586;2024-01-30T07:03:34;7.70;99.90
14317;DHT22;7242;50.858;6.586;2024-01-30T07:06:34;7.70;99.90
14317;DHT22;7242;50.858;6.586;2024-01-30T07:09:35;7.80;99.90
14317;DHT22;7242;50.858;6.586;2024-01-30T07:12:36;7.80;99.90
14317;DHT22;7242;50.858;6.586;2024-01-30T07:15:37;7.80;99.90
14317;DHT22;7242;50.858;6.586;2024-01-30T07:18:38;7.80;99.90
14317;DHT22;7242;50.858;6.586;2024-01-30T07:24:44;7.90;99.90
14317;DHT22;7242;50.858;6.586;2024-01-30T07:30:51;8.00;99.90
14317;DHT22;7242;50.858;6.586;2024-01-30T07:39:55;8.30;99.90
14317;DHT22;7242;50.858;6.586;2024-01-30T07:45:57;8.60;99.90
14317;DHT22;7242;50.858;6.586;2024-01-30T07:48:58;8.60;99.90
14317;DHT22;7242;50.858;6.586;2024-01-30T07:52:02;8.70;99.90
14317;DHT22;7242;50.858;6.586;2024-01-30T07:58:08;8.80;99.90
14317;DHT22;7242;50.858;6.586;2024-01-30T08:04:12;8.80;99.90
14317;DHT22;7242;50.858;6.586;2024-01-30T08:10:14;8.90;99.90
14317;DHT22;7242;50.858;6.586;2024-01-30T08:16:16;9.00;99.90
14317;DHT22;7242;50.858;6.586;2024-01-30T08:22:18;9.10;99.90
14317;DHT22;7242;50.858;6.586;2024-01-30T08:28:20;9.20;99.90
14317;DHT22;7242;50.858;6.586;2024-01-30T08:34:22;9.50;99.90
14317;DHT22;7242;50.858;6.586;2024-01-30T08:37:23;9.60;99.90
14317;DHT22;7242;50.858;6.586;2024-01-30T08:40:23;9.70;99.90
14317;DHT22;7242;50.858;6.586;2024-01-30T08:43:24;9.80;99.90
14317;DHT22;7242;50.858;6.586;2024-01-30T08:49:26;10.00;99.90
14317;DHT22;7242;50.858;6.586;2024-01-30T09:01:31;10.30;99.90
14317;DHT22;7242;50.858;6.586;2024-01-30T09:07:33;10.50;99.90
14317;DHT22;7242;50.858;6.586;2024-01-30T09:19:37;10.70;99.90
14317;DHT22;7242;50.858;6.586;2024-01-30T09:25:39;10.90;99.90
14317;DHT22;7242;50.858;6.586;2024-01-30T09:31:44;11.10;99.90
14317;DHT22;7242;50.858;6.586;2024-01-30T09:34:45;11.10;99.90
14317;DHT22;7242;50.858;6.586;2024-01-30T09:37:46;11.20;99.90
14317;DHT22;7242;50.858;6.586;2024-01-30T09:40:53;11.30;99.90
14317;DHT22;7242;50.858;6.586;2024-01-30T09:43:57;11.30;99.90
14317;DHT22;7242;50.858;6.586;2024-01-30T09:46:58;11.40;99.90
14317;DHT22;7242;50.858;6.586;2024-01-30T09:53:08;11.50;99.90
14317;DHT22;7242;50.858;6.586;2024-01-30T10:05:16;11.60;99.90
14317;DHT22;7242;50.858;6.586;2024-01-30T10:11:20;11.40;99.90
14317;DHT22;7242;50.858;6.586;2024-01-30T10:14:22;11.40;99.90
14317;DHT22;7242;50.858;6.586;2024-01-30T10:17:25;11.40;99.90
14317;DHT22;7242;50.858;6.586;2024-01-30T10:20:26;11.40;99.90
14317;DHT22;7242;50.858;6.586;2024-01-30T10:23:26;11.50;99.90
14317;DHT22;7242;50.858;6.586;2024-01-30T10:32:31;11.70;99.90
14317;DHT22;7242;50.858;6.586;2024-01-30T10:38:34;11.90;99.90
14317;DHT22;7242;50.858;6.586;2024-01-30T10:41:42;11.90;99.90
14317;DHT22;7242;50.858;6.586;2024-01-30T10:45:10;12.00;99.90
14317;DHT22;7242;50.858;6.586;2024-01-30T10:48:13;12.10;99.90
14317;DHT22;7242;50.858;6.586;2024-01-30T10:51:15;12.20;99.90
14317;DHT22;7242;50.858;6.586;2024-01-30T10:54:17;12.20;99.90
14317;DHT22;7242;50.858;6.586;2024-01-30T11:00:19;12.30;99.90
14317;DHT22;7242;50.858;6.586;2024-01-30T11:03:24;12.40;99.90
14317;DHT22;7242;50.858;6.586;2024-01-30T11:06:25;12.50;99.90
14317;DHT22;7242;50.858;6.586;2024-01-30T11:09:29;12.40;99.90
14317;DHT22;7242;50.858;6.586;2024-01-30T11:12:31;12.50;99.90
14317;DHT22;7242;50.858;6.586;2024-01-30T11:15:37;12.60;99.90
14317;DHT22;7242;50.858;6.586;2024-01-30T11:21:43;12.90;99.90
14317;DHT22;7242;50.858;6.586;2024-01-30T11:24:47;13.00;99.90
14317;DHT22;7242;50.858;6.586;2024-01-30T11:27:50;13.10;99.90
14317;DHT22;7242;50.858;6.586;2024-01-30T11:30:51;13.20;99.90
14317;DHT22;7242;50.858;6.586;2024-01-30T11:33:56;13.40;99.90
14317;DHT22;7242;50.858;6.586;2024-01-30T11:37:00;13.40;99.90
14317;DHT22;7242;50.858;6.586;2024-01-30T11:40:04;13.40;99.90
14317;DHT22;7242;50.858;6.586;2024-01-30T11:43:07;13.40;99.90
14317;DHT22;7242;50.858;6.586;2024-01-30T11:46:08;13.50;99.90
14317;DHT22;7242;50.858;6.586;2024-01-30T11:49:10;13.50;99.90
14317;DHT22;7242;50.858;6.586;2024-01-30T11:58:14;13.40;99.90
14317;DHT22;7242;50.858;6.586;2024-01-30T12:01:17;13.50;99.90
14317;DHT22;7242;50.858;6.586;2024-01-30T12:07:19;13.50;99.90
14317;DHT22;7242;50.858;6.586;2024-01-30T12:10:20;13.50;99.90
14317;DHT22;7242;50.858;6.586;2024-01-30T12:16:23;13.50;99.90
14317;DHT22;7242;50.858;6.586;2024-01-30T12:19:25;13.50;99.90
14317;DHT22;7242;50.858;6.586;2024-01-30T12:22:26;13.60;99.90
14317;DHT22;7242;50.858;6.586;2024-01-30T12:25:26;13.70;99.90
14317;DHT22;7242;50.858;6.586;2024-01-30T12:31:29;13.80;99.90
14317;DHT22;7242;50.858;6.586;2024-01-30T12:37:31;13.90;99.90
14317;DHT22;7242;50.858;6.586;2024-01-30T12:40:33;13.80;99.90
14317;DHT22;7242;50.858;6.586;2024-01-30T12:43:34;13.80;99.90
14317;DHT22;7242;50.858;6.586;2024-01-30T12:46:35;13.90;99.90
14317;DHT22;7242;50.858;6.586;2024-01-30T12:49:36;13.80;99.90
14317;DHT22;7242;50.858;6.586;2024-01-30T12:55:38;13.70;99.90
14317;DHT22;7242;50.858;6.586;2024-01-30T13:01:40;13.70;99.90
14317;DHT22;7242;50.858;6.586;2024-01-30T13:07:42;13.60;99.90
14317;DHT22;7242;50.858;6.586;2024-01-30T13:10:43;13.50;99.90
14317;DHT22;7242;50.858;6.586;2024-01-30T13:13:44;13.50;99.90
14317;DHT22;7242;50.858;6.586;2024-01-30T13:19:46;13.40;99.90
14317;DHT22;7242;50.858;6.586;2024-01-30T13:25:51;13.20;99.90
14317;DHT22;7242;50.858;6.586;2024-01-30T13:31:53;13.10;99.90
14317;DHT22;7242;50.858;6.586;2024-01-30T13:37:55;13.00;99.90
14317;DHT22;7242;50.858;6.586;2024-01-30T13:43:57;12.90;99.90
14317;DHT22;7242;50.858;6.586;2024-01-30T13:49:59;12.90;99.90
14317;DHT22;7242;50.858;6.586;2024-01-30T13:53:00;12.90;99.90
14317;DHT22;7242;50.858;6.586;2024-01-30T13:56:01;12.90;99.90
14317;DHT22;7242;50.858;6.586;2024-01-30T14:02:05;12.80;99.90
14317;DHT22;7242;50.858;6.586;2024-01-30T14:08:10;12.80;99.90
14317;DHT22;7242;50.858;6.586;2024-01-30T14:20:15;12.60;99.90
14317;DHT22;7242;50.858;6.586;2024-01-30T14:29:22;12.80;99.90
14317;DHT22;7242;50.858;6.586;2024-01-30T14:32:23;12.80;99.90
14317;DHT22;7242;50.858;6.586;2024-01-30T14:35:24;12.70;99.90
14317;DHT22;7242;50.858;6.586;2024-01-30T14:38:25;12.70;99.90
14317;DHT22;7242;50.858;6.586;2024-01-30T14:41:26;12.70;99.90
14317;DHT22;7242;50.858;6.586;2024-01-30T14:53:31;12.60;99.90
14317;DHT22;7242;50.858;6.586;2024-01-30T14:56:32;12.70;99.90
14317;DHT22;7242;50.858;6.586;2024-01-30T14:59:33;12.70;99.90
14317;DHT22;7242;50.858;6.586;2024-01-30T15:02:34;12.70;99.90
14317;DHT22;7242;50.858;6.586;2024-01-30T15:08:37;12.70;99.90
14317;DHT22;7242;50.858;6.586;2024-01-30T15:14:39;12.70;99.90
14317;DHT22;7242;50.858;6.586;2024-01-30T15:20:41;12.60;99.90
14317;DHT22;7242;50.858;6.586;2024-01-30T15:29:45;12.40;99.90
14317;DHT22;7242;50.858;6.586;2024-01-30T15:35:47;12.00;99.90
14317;DHT22;7242;50.858;6.586;2024-01-30T15:41:49;11.90;99.90
14317;DHT22;7242;50.858;6.586;2024-01-30T15:47:51;11.80;99.90
14317;DHT22;7242;50.858;6.586;2024-01-30T15:50:52;11.60;99.90
14317;DHT22;7242;50.858;6.586;2024-01-30T15:53:53;11.50;99.90
14317;DHT22;7242;50.858;6.586;2024-01-30T15:59:55;11.50;99.90
14317;DHT22;7242;50.858;6.586;2024-01-30T16:06:20;11.30;99.90
14317;DHT22;7242;50.858;6.586;2024-01-30T16:09:40;11.40;99.90
14317;DHT22;7242;50.858;6.586;2024-01-30T16:19:42;11.10;99.90
14317;DHT22;7242;50.858;6.586;2024-01-30T16:23:04;11.20;99.90
14317;DHT22;7242;50.858;6.586;2024-01-30T16:26:25;11.10;99.90
14317;DHT22;7242;50.858;6.586;2024-01-30T16:36:30;11.10;99.90
14317;DHT22;7242;50.858;6.586;2024-01-30T16:39:51;11.00;99.90
14317;DHT22;7242;50.858;6.586;2024-01-30T16:46:34;11.00;99.90
14317;DHT22;7242;50.858;6.586;2024-01-30T16:49:58;10.90;99.90
14317;DHT22;7242;50.858;6.586;2024-01-30T16:56:45;10.90;99.90
14317;DHT22;7242;50.858;6.586;2024-01-30T17:03:32;10.80;99.90
14317;DHT22;7242;50.858;6.586;2024-01-30T17:06:55;10.80;99.90
14317;DHT22;7242;50.858;6.586;2024-01-30T17:10:19;10.80;99.90
14317;DHT22;7242;50.858;6.586;2024-01-30T17:13:40;10.80;99.90
14317;DHT22;7242;50.858;6.586;2024-01-30T17:23:46;10.80;99.90
14317;DHT22;7242;50.858;6.586;2024-01-30T17:37:26;10.70;99.90
14317;DHT22;7242;50.858;6.586;2024-01-30T17:51:02;10.70;99.90
14317;DHT22;7242;50.858;6.586;2024-01-30T18:00:46;10.70;99.90
14317;DHT22;7242;50.858;6.586;2024-01-30T18:03:47;10.60;99.90
14317;DHT22;7242;50.858;6.586;2024-01-30T18:06:51;10.60;99.90
14317;DHT22;7242;50.858;6.586;2024-01-30T18:18:59;10.60;99.90
14317;DHT22;7242;50.858;6.586;2024-01-30T18:28:03;10.50;99.90
14317;DHT22;7242;50.858;6.586;2024-01-30T18:34:07;10.30;99.90
14317;DHT22;7242;50.858;6.586;2024-01-30T18:43:11;10.30;99.90
14317;DHT22;7242;50.858;6.586;2024-01-30T19:01:19;10.10;99.90
14317;DHT22;7242;50.858;6.586;2024-01-30T19:16:25;10.00;99.90
14317;DHT22;7242;50.858;6.586;2024-01-30T19:19:38;9.90;99.90
14317;DHT22;7242;50.858;6.586;2024-01-30T19:26:04;10.00;99.90
14317;DHT22;7242;50.858;6.586;2024-01-30T19:35:08;10.00;99.90
14317;DHT22;7242;50.858;6.586;2024-01-30T19:44:15;10.00;99.90
14317;DHT22;7242;50.858;6.586;2024-01-30T19:53:18;10.00;99.90
14317;DHT22;7242;50.858;6.586;2024-01-30T19:56:21;10.10;99.90
14317;DHT22;7242;50.858;6.586;2024-01-30T19:59:22;10.00;99.90
14317;DHT22;7242;50.858;6.586;2024-01-30T20:02:23;10.00;99.90
14317;DHT22;7242;50.858;6.586;2024-01-30T20:14:31;10.00;99.90
14317;DHT22;7242;50.858;6.586;2024-01-30T20:17:31;10.00;99.90
14317;DHT22;7242;50.858;6.586;2024-01-30T20:38:43;10.10;99.90
14317;DHT22;7242;50.858;6.586;2024-01-30T20:41:44;10.00;99.90
14317;DHT22;7242;50.858;6.586;2024-01-30T20:47:46;9.90;99.90
14317;DHT22;7242;50.858;6.586;2024-01-30T21:11:56;9.70;99.90
14317;DHT22;7242;50.858;6.586;2024-01-30T21:14:57;9.70;99.90
14317;DHT22;7242;50.858;6.586;2024-01-30T21:24:00;9.60;99.90
14317;DHT22;7242;50.858;6.586;2024-01-30T21:36:05;9.70;99.90
14317;DHT22;7242;50.858;6.586;2024-01-30T21:42:07;9.70;99.90
14317;DHT22;7242;50.858;6.586;2024-01-30T21:45:09;9.70;99.90
14317;DHT22;7242;50.858;6.586;2024-01-30T21:48:10;9.60;99.90
14317;DHT22;7242;50.858;6.586;2024-01-30T22:00:15;9.70;99.90
14317;DHT22;7242;50.858;6.586;2024-01-30T22:06:17;9.50;99.90
14317;DHT22;7242;50.858;6.586;2024-01-30T22:09:20;9.40;99.90
14317;DHT22;7242;50.858;6.586;2024-01-30T22:21:26;9.30;99.90
14317;DHT22;7242;50.858;6.586;2024-01-30T22:24:27;9.20;99.90
14317;DHT22;7242;50.858;6.586;2024-01-30T22:27:28;9.20;99.90
14317;DHT22;7242;50.858;6.586;2024-01-30T22:33:30;9.20;99.90
14317;DHT22;7242;50.858;6.586;2024-01-30T23:03:43;9.30;99.90
14317;DHT22;7242;50.858;6.586;2024-01-30T23:09:46;9.30;99.90
14317;DHT22;7242;50.858;6.586;2024-01-30T23:18:49;9.30;99.90
14317;DHT22;7242;50.858;6.586;2024-01-30T23:27:53;9.30;99.90
14317;DHT22;7242;50.858;6.586;2024-01-30T23:43:01;9.30;99.90
